Time;durP1;ratioP1;P1;durP2;ratioP2;P2;SDS_P1;SDS_P2;PMS_P1;PMS_P2;Temp;Humidity;BMP_temperature;BMP_pressure;BME280_temperature;BME280_humidity;BME280_pressure;Samples;Min_cycle;Max_cycle;Signal;HPM_P1;HPM_P2
2024/01/08 00:00:59;;;;;;;7.20;2.33;;;;;;;;;;5072555;28;20041;-40
2024/01/08 00:03:27;;;;;;;11.68;1.80;;;;;;;;;;5084530;28;20478;-40
2024/01/08 00:05:54;;;;;;;6.70;1.50;;;;;;;;;;5090844;28;20489;-40
2024/01/08 00:08:22;;;;;;;9.23;1.40;;;;;;;;;;5074239;28;20032;-40
2024/01/08 00:10:49;;;;;;;16.17;1.50;;;;;;;;;;5072460;28;20248;-40
2024/01/08 00:13:15;;;;;;;6.78;1.65;;;;;;;;;;5074170;28;20032;-40
2024/01/08 00:15:42;;;;;;;7.82;1.95;;;;;;;;;;5073054;28;20024;-41
2024/01/08 00:18:09;;;;;;;10.60;2.45;;;;;;;;;;5073949;28;20033;-40
2024/01/08 00:20:37;;;;;;;9.00;2.60;;;;;;;;;;5072283;28;20048;-40
2024/01/08 00:23:04;;;;;;;4.80;1.98;;;;;;;;;;5074039;28;20031;-40
2024/01/08 00:25:31;;;;;;;4.38;1.80;;;;;;;;;;5073549;28;20028;-40
2024/01/08 00:27:58;;;;;;;5.60;1.60;;;;;;;;;;5073838;28;20371;-40
2024/01/08 00:30:25;;;;;;;4.25;1.50;;;;;;;;;;5073795;28;20360;-40
2024/01/08 00:32:52;;;;;;;3.13;1.10;;;;;;;;;;5072189;28;20033;-41
2024/01/08 00:35:19;;;;;;;4.18;1.02;;;;;;;;;;5073920;28;20032;-40
2024/01/08 00:37:46;;;;;;;4.60;1.17;;;;;;;;;;5073806;28;20031;-40
2024/01/08 00:40:13;;;;;;;4.95;1.10;;;;;;;;;;5073669;28;20032;-40
2024/01/08 00:42:40;;;;;;;2.95;1.20;;;;;;;;;;5073350;28;20078;-40
2024/01/08 00:45:08;;;;;;;3.00;0.80;;;;;;;;;;5072944;28;20103;-40
2024/01/08 00:47:35;;;;;;;1.52;0.90;;;;;;;;;;5073607;28;20104;-40
2024/01/08 00:50:02;;;;;;;1.67;0.60;;;;;;;;;;5073521;28;20071;-40
2024/01/08 00:52:29;;;;;;;3.75;0.80;;;;;;;;;;5073554;28;20035;-40
2024/01/08 00:55:01;;;;;;;3.10;0.98;;;;;;;;;;5073441;28;20414;-40
2024/01/08 00:57:28;;;;;;;6.10;1.10;;;;;;;;;;5073319;28;20037;-40
2024/01/08 00:59:55;;;;;;;6.50;1.30;;;;;;;;;;5073352;28;20020;-40
2024/01/08 01:02:22;;;;;;;8.30;1.50;;;;;;;;;;5080350;28;20036;-40
2024/01/08 01:04:49;;;;;;;6.32;1.30;;;;;;;;;;5093494;28;20078;-40
2024/01/08 01:07:16;;;;;;;7.13;1.30;;;;;;;;;;5093335;28;20149;-40
2024/01/08 01:09:43;;;;;;;4.13;1.10;;;;;;;;;;5093421;28;20043;-40
2024/01/08 01:12:10;;;;;;;9.35;1.30;;;;;;;;;;5093220;28;20119;-40
2024/01/08 01:14:37;;;;;;;6.70;1.80;;;;;;;;;;5093364;28;20024;-40
2024/01/08 01:17:04;;;;;;;2.95;1.52;;;;;;;;;;5093293;28;20786;-39
2024/01/08 01:19:31;;;;;;;5.72;2.45;;;;;;;;;;5093033;28;20031;-39
2024/01/08 01:21:59;;;;;;;5.10;2.15;;;;;;;;;;5093241;28;20028;-38
2024/01/08 01:24:26;;;;;;;3.83;1.90;;;;;;;;;;5093693;28;20547;-39
2024/01/08 01:26:52;;;;;;;7.72;1.83;;;;;;;;;;5093661;28;20030;-38
2024/01/08 01:29:19;;;;;;;4.00;1.40;;;;;;;;;;5093377;28;20020;-39
2024/01/08 01:31:46;;;;;;;6.45;1.45;;;;;;;;;;5093480;28;20038;-39
2024/01/08 01:34:13;;;;;;;4.72;1.20;;;;;;;;;;5093087;28;20039;-39
2024/01/08 01:36:41;;;;;;;4.47;1.50;;;;;;;;;;5093263;28;20056;-38
2024/01/08 01:39:08;;;;;;;5.20;1.73;;;;;;;;;;5093572;28;20032;-39
2024/01/08 01:41:35;;;;;;;2.97;1.60;;;;;;;;;;5075221;28;20040;-38
2024/01/08 01:44:02;;;;;;;4.32;2.20;;;;;;;;;;5092794;28;20088;-39
2024/01/08 01:46:29;;;;;;;5.13;2.65;;;;;;;;;;5093043;28;20051;-39
2024/01/08 01:48:56;;;;;;;7.43;2.60;;;;;;;;;;5092341;28;20056;-38
2024/01/08 01:51:23;;;;;;;5.53;2.60;;;;;;;;;;5091482;28;20032;-39
2024/01/08 01:53:50;;;;;;;7.25;2.88;;;;;;;;;;5091584;28;20749;-38
2024/01/08 01:56:17;;;;;;;5.88;2.15;;;;;;;;;;5090931;28;20436;-38
2024/01/08 01:58:45;;;;;;;9.25;2.05;;;;;;;;;;5091475;28;20024;-39
2024/01/08 02:01:13;;;;;;;8.05;2.10;;;;;;;;;;5090840;28;20061;-38
2024/01/08 02:03:41;;;;;;;4.70;1.95;;;;;;;;;;5091642;28;20115;-39
2024/01/08 02:06:10;;;;;;;5.47;1.85;;;;;;;;;;5091533;28;20024;-39
2024/01/08 02:08:38;;;;;;;4.95;2.00;;;;;;;;;;5092190;28;20095;-39
2024/01/08 02:11:05;;;;;;;4.95;1.90;;;;;;;;;;5092014;28;20024;-39
2024/01/08 02:13:32;;;;;;;5.82;2.13;;;;;;;;;;5092343;28;20042;-39
2024/01/08 02:15:59;;;;;;;5.45;2.13;;;;;;;;;;5092038;28;20047;-38
2024/01/08 02:18:26;;;;;;;9.73;2.30;;;;;;;;;;5091537;28;20077;-39
2024/01/08 02:20:53;;;;;;;5.18;2.22;;;;;;;;;;5091908;28;20044;-38
2024/01/08 02:23:19;;;;;;;9.65;1.70;;;;;;;;;;5092095;28;20032;-38
2024/01/08 02:25:47;;;;;;;7.85;1.90;;;;;;;;;;5092063;28;20044;-39
2024/01/08 02:28:13;;;;;;;4.90;2.10;;;;;;;;;;5091779;28;20024;-39
2024/01/08 02:30:40;;;;;;;5.35;1.88;;;;;;;;;;5091410;28;20166;-38
2024/01/08 02:33:08;;;;;;;8.38;1.77;;;;;;;;;;5091691;28;20028;-38
2024/01/08 02:35:36;;;;;;;5.28;1.90;;;;;;;;;;5091385;28;20039;-38
2024/01/08 02:38:03;;;;;;;8.75;2.05;;;;;;;;;;5091551;28;20032;-38
2024/01/08 02:40:30;;;;;;;3.75;1.88;;;;;;;;;;5091225;28;20488;-38
2024/01/08 02:42:57;;;;;;;7.07;1.98;;;;;;;;;;5090953;28;20036;-38
2024/01/08 02:45:24;;;;;;;5.18;2.40;;;;;;;;;;5081278;28;20039;-39
2024/01/08 02:47:51;;;;;;;5.80;2.47;;;;;;;;;;5090735;28;20065;-39
2024/01/08 02:50:18;;;;;;;8.07;2.30;;;;;;;;;;5091389;28;20027;-38
2024/01/08 02:52:45;;;;;;;6.47;1.80;;;;;;;;;;5091399;28;20107;-38
2024/01/08 02:55:12;;;;;;;4.38;2.40;;;;;;;;;;5091535;28;20032;-38
2024/01/08 02:57:39;;;;;;;5.63;1.83;;;;;;;;;;5091088;28;20085;-39
2024/01/08 03:00:07;;;;;;;7.88;2.40;;;;;;;;;;5091245;28;20028;-38
2024/01/08 03:02:34;;;;;;;3.70;2.17;;;;;;;;;;5087801;28;20040;-39
2024/01/08 03:05:01;;;;;;;4.05;2.38;;;;;;;;;;5091274;28;20025;-38
2024/01/08 03:07:28;;;;;;;4.30;2.20;;;;;;;;;;5093464;28;20063;-38
2024/01/08 03:09:57;;;;;;;5.57;2.00;;;;;;;;;;5095337;28;20032;-39
2024/01/08 03:12:24;;;;;;;6.47;2.13;;;;;;;;;;5095696;28;20057;-38
2024/01/08 03:14:52;;;;;;;6.13;1.85;;;;;;;;;;5095270;28;20023;-39
2024/01/08 03:17:19;;;;;;;6.03;1.60;;;;;;;;;;5095199;28;20067;-38
2024/01/08 03:19:47;;;;;;;3.10;1.50;;;;;;;;;;5094312;28;20143;-38
2024/01/08 03:22:14;;;;;;;4.18;1.50;;;;;;;;;;5094933;28;20047;-38
2024/01/08 03:24:42;;;;;;;2.15;1.48;;;;;;;;;;5094985;28;20024;-38
2024/01/08 03:27:10;;;;;;;4.10;1.80;;;;;;;;;;5095129;28;20039;-38
2024/01/08 03:29:37;;;;;;;4.07;1.30;;;;;;;;;;5094612;28;20071;-39
2024/01/08 03:32:05;;;;;;;3.97;1.20;;;;;;;;;;5095039;28;20057;-38
2024/01/08 03:34:33;;;;;;;3.65;1.13;;;;;;;;;;5095227;28;20035;-38
2024/01/08 03:37:00;;;;;;;3.10;1.00;;;;;;;;;;5094842;28;20023;-38
2024/01/08 03:39:27;;;;;;;1.95;1.02;;;;;;;;;;5094489;28;20032;-38
2024/01/08 03:41:55;;;;;;;3.55;1.20;;;;;;;;;;5094474;28;20039;-39
2024/01/08 03:44:23;;;;;;;5.03;1.50;;;;;;;;;;5094711;28;20445;-38
2024/01/08 03:46:50;;;;;;;9.70;1.70;;;;;;;;;;5094715;28;20036;-39
2024/01/08 03:49:17;;;;;;;8.55;2.00;;;;;;;;;;5095133;28;20048;-39
2024/01/08 03:51:45;;;;;;;6.85;1.67;;;;;;;;;;5093185;28;20164;-38
2024/01/08 03:54:12;;;;;;;8.32;1.63;;;;;;;;;;5094792;28;20024;-39
2024/01/08 03:56:40;;;;;;;6.97;1.50;;;;;;;;;;5094668;28;20042;-41
2024/01/08 03:59:07;;;;;;;2.08;1.15;;;;;;;;;;5085802;28;20031;-40
2024/01/08 04:01:34;;;;;;;3.28;1.60;;;;;;;;;;5094558;28;20539;-40
2024/01/08 04:04:01;;;;;;;8.30;1.30;;;;;;;;;;5088421;28;20028;-40
2024/01/08 04:06:28;;;;;;;8.43;1.70;;;;;;;;;;5092499;28;20032;-42
2024/01/08 04:08:55;;;;;;;12.20;1.55;;;;;;;;;;5094289;28;20115;-41
2024/01/08 04:11:22;;;;;;;8.43;1.60;;;;;;;;;;5093801;28;20028;-42
2024/01/08 04:13:50;;;;;;;2.65;1.17;;;;;;;;;;5092793;28;20834;-42
2024/01/08 04:16:17;;;;;;;7.80;1.55;;;;;;;;;;5094018;28;20020;-42
2024/01/08 04:18:44;;;;;;;4.85;1.50;;;;;;;;;;5094459;28;20059;-42
2024/01/08 04:21:16;;;;;;;4.78;1.20;;;;;;;;;;5088108;28;20051;-42
2024/01/08 04:23:43;;;;;;;7.88;1.30;;;;;;;;;;5072321;28;20482;-42
2024/01/08 04:26:20;;;;;;;4.25;1.30;;;;;;;;;;5089059;28;20111;-42
2024/01/08 04:28:47;;;;;;;4.85;1.50;;;;;;;;;;5084122;28;20112;-42
2024/01/08 04:31:21;;;;;;;4.75;1.42;;;;;;;;;;5089306;28;20038;-42
2024/01/08 04:33:49;;;;;;;3.83;1.20;;;;;;;;;;5093731;28;20032;-42
2024/01/08 04:36:16;;;;;;;3.97;1.42;;;;;;;;;;5093393;28;20038;-42
2024/01/08 04:38:47;;;;;;;5.45;1.38;;;;;;;;;;5075323;28;20568;-42
2024/01/08 04:41:20;;;;;;;3.25;1.67;;;;;;;;;;5092517;28;20485;-42
2024/01/08 04:43:48;;;;;;;5.30;1.58;;;;;;;;;;5080011;28;20032;-42
2024/01/08 04:46:15;;;;;;;3.47;1.63;;;;;;;;;;5090915;28;20099;-42
2024/01/08 04:48:42;;;;;;;4.10;1.40;;;;;;;;;;5092716;28;20048;-41
2024/01/08 04:51:09;;;;;;;3.60;1.27;;;;;;;;;;5083926;28;20125;-42
2024/01/08 04:53:37;;;;;;;3.38;1.35;;;;;;;;;;5079297;28;20599;-41
2024/01/08 04:56:04;;;;;;;6.32;1.27;;;;;;;;;;5080883;28;20039;-42
2024/01/08 04:58:31;;;;;;;4.03;1.13;;;;;;;;;;5077837;28;20029;-42
2024/01/08 05:00:58;;;;;;;3.13;1.10;;;;;;;;;;5080678;28;20094;-42
2024/01/08 05:03:25;;;;;;;4.68;1.30;;;;;;;;;;5076964;28;20028;-41
2024/01/08 05:05:51;;;;;;;5.90;1.15;;;;;;;;;;5078911;28;20381;-42
2024/01/08 05:08:18;;;;;;;2.60;1.10;;;;;;;;;;5076151;28;20029;-42
2024/01/08 05:10:45;;;;;;;3.97;1.20;;;;;;;;;;5078261;28;20081;-41
2024/01/08 05:13:12;;;;;;;2.85;1.02;;;;;;;;;;5075590;28;20028;-42
2024/01/08 05:15:39;;;;;;;2.50;1.00;;;;;;;;;;5080006;28;20046;-42
2024/01/08 05:18:06;;;;;;;3.45;1.10;;;;;;;;;;5090249;28;20111;-42
2024/01/08 05:20:33;;;;;;;2.70;1.20;;;;;;;;;;5093336;28;20428;-41
2024/01/08 05:23:01;;;;;;;5.03;1.00;;;;;;;;;;5093120;28;20028;-42
2024/01/08 05:25:28;;;;;;;4.50;1.08;;;;;;;;;;5074444;28;20466;-44
2024/01/08 05:27:55;;;;;;;2.20;1.00;;;;;;;;;;5092248;28;20107;-41
2024/01/08 05:30:22;;;;;;;2.25;0.82;;;;;;;;;;5073781;28;20032;-43
2024/01/08 05:32:50;;;;;;;1.95;0.88;;;;;;;;;;5089939;28;20294;-41
2024/01/08 05:35:17;;;;;;;5.15;1.23;;;;;;;;;;5093588;28;20043;-41
2024/01/08 05:37:44;;;;;;;3.22;1.13;;;;;;;;;;5093127;28;20119;-41
2024/01/08 05:40:11;;;;;;;4.18;0.93;;;;;;;;;;5093120;28;20024;-42
2024/01/08 05:42:42;;;;;;;4.13;0.80;;;;;;;;;;5093199;28;20028;-42
2024/01/08 05:45:11;;;;;;;2.78;1.10;;;;;;;;;;5093332;28;20036;-41
2024/01/08 05:47:38;;;;;;;4.80;1.00;;;;;;;;;;5093287;28;20039;-41
2024/01/08 05:50:05;;;;;;;2.70;0.95;;;;;;;;;;5092445;28;20044;-41
2024/01/08 05:52:33;;;;;;;3.10;0.93;;;;;;;;;;5074405;28;20028;-41
2024/01/08 05:55:00;;;;;;;2.05;0.73;;;;;;;;;;5092401;28;20024;-41
2024/01/08 05:57:26;;;;;;;2.55;0.90;;;;;;;;;;5092481;28;20028;-41
2024/01/08 05:59:53;;;;;;;2.15;0.90;;;;;;;;;;5092133;28;20055;-41
2024/01/08 06:02:21;;;;;;;3.55;0.70;;;;;;;;;;5090681;28;20092;-41
2024/01/08 06:04:48;;;;;;;3.55;0.90;;;;;;;;;;5091984;28;20050;-41
2024/01/08 06:07:15;;;;;;;1.60;0.90;;;;;;;;;;5092245;28;20050;-41
2024/01/08 06:09:41;;;;;;;2.50;0.80;;;;;;;;;;5092218;28;20508;-42
2024/01/08 06:12:08;;;;;;;3.95;1.05;;;;;;;;;;5092221;28;20036;-42
2024/01/08 06:14:41;;;;;;;4.15;1.20;;;;;;;;;;5092111;28;20026;-44
2024/01/08 06:17:08;;;;;;;3.22;1.05;;;;;;;;;;5091651;28;20047;-41
2024/01/08 06:19:36;;;;;;;2.15;0.80;;;;;;;;;;5092076;28;20477;-41
2024/01/08 06:22:04;;;;;;;1.80;0.80;;;;;;;;;;5091852;28;20043;-41
2024/01/08 06:24:31;;;;;;;2.78;0.85;;;;;;;;;;5115261;22;20134;-41
2024/01/08 06:26:58;;;;;;;1.42;0.90;;;;;;;;;;5090241;28;20073;-40
2024/01/08 06:29:25;;;;;;;2.75;0.88;;;;;;;;;;5092153;28;20024;-40
2024/01/08 06:31:52;;;;;;;1.63;0.88;;;;;;;;;;5092044;28;20026;-40
2024/01/08 06:34:19;;;;;;;2.88;0.80;;;;;;;;;;5091938;28;20024;-41
2024/01/08 06:36:46;;;;;;;3.65;1.05;;;;;;;;;;5091892;28;20031;-40
2024/01/08 06:39:13;;;;;;;2.75;0.70;;;;;;;;;;5091603;28;20031;-40
2024/01/08 06:41:40;;;;;;;2.03;0.70;;;;;;;;;;5089707;28;20118;-40
2024/01/08 06:44:07;;;;;;;1.98;0.70;;;;;;;;;;5091325;28;20107;-40
2024/01/08 06:46:34;;;;;;;1.67;0.77;;;;;;;;;;5091405;28;20444;-41
2024/01/08 06:49:01;;;;;;;2.78;0.80;;;;;;;;;;5091735;28;20043;-40
2024/01/08 06:51:28;;;;;;;6.43;0.98;;;;;;;;;;5091798;28;20027;-40
2024/01/08 06:53:54;;;;;;;4.70;0.80;;;;;;;;;;5090391;28;20629;-40
2024/01/08 06:56:21;;;;;;;1.23;0.70;;;;;;;;;;5091115;28;20476;-41
2024/01/08 06:58:49;;;;;;;2.10;0.80;;;;;;;;;;5091656;28;20122;-40
2024/01/08 07:01:16;;;;;;;4.82;0.85;;;;;;;;;;5091371;28;20473;-40
2024/01/08 07:03:43;;;;;;;0.82;0.50;;;;;;;;;;5091600;28;20024;-41
2024/01/08 07:06:10;;;;;;;2.97;0.80;;;;;;;;;;5091245;28;20036;-40
2024/01/08 07:08:37;;;;;;;2.42;0.80;;;;;;;;;;5091517;28;20028;-40
2024/01/08 07:11:07;;;;;;;1.35;0.60;;;;;;;;;;5091607;28;20425;-41
2024/01/08 07:13:38;;;;;;;2.22;0.70;;;;;;;;;;5091528;28;20024;-40
2024/01/08 07:16:05;;;;;;;3.25;0.93;;;;;;;;;;5091491;28;20488;-41
2024/01/08 07:18:32;;;;;;;3.90;1.02;;;;;;;;;;5091648;28;20526;-40
2024/01/08 07:20:58;;;;;;;3.10;0.88;;;;;;;;;;5091086;28;20077;-41
2024/01/08 07:23:26;;;;;;;2.20;0.80;;;;;;;;;;5091569;28;20032;-40
2024/01/08 07:25:53;;;;;;;3.35;1.02;;;;;;;;;;5091171;28;20087;-40
2024/01/08 07:28:20;;;;;;;4.30;0.90;;;;;;;;;;5091402;28;20064;-40
2024/01/08 07:30:47;;;;;;;2.08;0.73;;;;;;;;;;5091382;28;20028;-41
2024/01/08 07:33:13;;;;;;;1.67;0.82;;;;;;;;;;5091425;28;20495;-40
2024/01/08 07:35:40;;;;;;;1.20;0.70;;;;;;;;;;5091413;28;20138;-40
2024/01/08 07:38:07;;;;;;;1.83;0.73;;;;;;;;;;5089924;28;20106;-40
2024/01/08 07:40:34;;;;;;;1.77;0.82;;;;;;;;;;5091214;28;20030;-41
2024/01/08 07:43:01;;;;;;;2.53;0.88;;;;;;;;;;5090900;28;20032;-41
2024/01/08 07:45:28;;;;;;;1.83;0.77;;;;;;;;;;5091203;28;20053;-41
2024/01/08 07:47:56;;;;;;;1.85;0.73;;;;;;;;;;5091227;28;20489;-40
2024/01/08 07:50:23;;;;;;;2.80;1.00;;;;;;;;;;5091077;28;20129;-40
2024/01/08 07:52:51;;;;;;;2.35;0.77;;;;;;;;;;5092117;28;20074;-40
2024/01/08 07:55:19;;;;;;;2.42;1.00;;;;;;;;;;5094718;28;20028;-40
2024/01/08 07:57:46;;;;;;;1.98;0.88;;;;;;;;;;5094820;28;20058;-40
2024/01/08 08:00:13;;;;;;;1.40;0.80;;;;;;;;;;5094882;28;20024;-40
2024/01/08 08:02:40;;;;;;;1.98;0.80;;;;;;;;;;5094670;28;20097;-40
2024/01/08 08:05:07;;;;;;;2.17;0.80;;;;;;;;;;5094866;28;20031;-40
2024/01/08 08:07:38;;;;;;;1.00;0.80;;;;;;;;;;5094714;28;20087;-40
2024/01/08 08:10:05;;;;;;;5.25;1.00;;;;;;;;;;5094486;28;20046;-40
2024/01/08 08:12:32;;;;;;;2.58;0.82;;;;;;;;;;5094577;28;20397;-42
2024/01/08 08:14:59;;;;;;;2.95;1.40;;;;;;;;;;5094549;28;20031;-40
2024/01/08 08:17:26;;;;;;;2.05;0.70;;;;;;;;;;5094567;28;20016;-40
2024/01/08 08:19:53;;;;;;;4.75;1.00;;;;;;;;;;5094515;28;20020;-40
2024/01/08 08:22:20;;;;;;;3.30;0.90;;;;;;;;;;5094447;28;20078;-40
2024/01/08 08:24:48;;;;;;;4.07;0.93;;;;;;;;;;5094079;28;20155;-40
2024/01/08 08:27:15;;;;;;;2.72;0.90;;;;;;;;;;5094340;28;20024;-40
2024/01/08 08:29:43;;;;;;;3.30;0.82;;;;;;;;;;5094325;28;20032;-40
2024/01/08 08:32:10;;;;;;;1.92;0.80;;;;;;;;;;5094330;28;20508;-41
2024/01/08 08:34:37;;;;;;;4.25;0.80;;;;;;;;;;5094299;28;20055;-40
2024/01/08 08:37:04;;;;;;;4.13;0.80;;;;;;;;;;5094102;28;20476;-40
2024/01/08 08:39:31;;;;;;;3.65;0.85;;;;;;;;;;5093527;28;20028;-41
2024/01/08 08:41:58;;;;;;;1.77;0.85;;;;;;;;;;5094093;28;20143;-41
2024/01/08 08:44:25;;;;;;;4.88;0.90;;;;;;;;;;5093990;28;20028;-41
2024/01/08 08:46:52;;;;;;;1.55;0.60;;;;;;;;;;5093994;28;20095;-40
2024/01/08 08:49:20;;;;;;;5.53;0.70;;;;;;;;;;5093789;28;20035;-40
2024/01/08 08:51:47;;;;;;;2.75;0.88;;;;;;;;;;5093797;28;20059;-40
2024/01/08 08:54:14;;;;;;;3.90;0.80;;;;;;;;;;5093734;28;20028;-41
2024/01/08 08:56:41;;;;;;;2.25;0.80;;;;;;;;;;5093725;28;20031;-41
2024/01/08 08:59:09;;;;;;;5.05;0.95;;;;;;;;;;5093631;28;20369;-40
2024/01/08 09:01:35;;;;;;;2.42;0.95;;;;;;;;;;5093459;28;20481;-40
2024/01/08 09:04:02;;;;;;;2.80;1.10;;;;;;;;;;5093152;28;20107;-40
2024/01/08 09:06:34;;;;;;;2.58;1.00;;;;;;;;;;5093082;28;20028;-40
2024/01/08 09:09:02;;;;;;;4.20;1.10;;;;;;;;;;5093444;28;20428;-40
2024/01/08 09:11:29;;;;;;;3.55;1.05;;;;;;;;;;5093477;28;20491;-40
2024/01/08 09:13:56;;;;;;;3.13;1.08;;;;;;;;;;5092911;28;20066;-40
2024/01/08 09:16:26;;;;;;;1.90;0.70;;;;;;;;;;5093100;28;20078;-40
2024/01/08 09:18:53;;;;;;;3.45;0.88;;;;;;;;;;5093485;28;20100;-40
2024/01/08 09:21:20;;;;;;;3.20;0.70;;;;;;;;;;5093125;28;20036;-40
2024/01/08 09:23:46;;;;;;;3.20;0.93;;;;;;;;;;5093236;28;20489;-40
2024/01/08 09:26:15;;;;;;;2.25;0.98;;;;;;;;;;5092873;28;20132;-40
2024/01/08 09:28:42;;;;;;;2.67;0.80;;;;;;;;;;5093049;28;20030;-40
2024/01/08 09:31:09;;;;;;;2.30;0.98;;;;;;;;;;5093087;28;20517;-40
2024/01/08 09:33:36;;;;;;;3.03;0.80;;;;;;;;;;5093033;28;20072;-40
2024/01/08 09:36:03;;;;;;;3.97;1.00;;;;;;;;;;5092852;28;20024;-40
2024/01/08 09:38:30;;;;;;;3.53;0.90;;;;;;;;;;5092919;28;20077;-40
2024/01/08 09:40:57;;;;;;;1.27;0.65;;;;;;;;;;5092788;28;20081;-40
2024/01/08 09:43:24;;;;;;;6.07;1.10;;;;;;;;;;5092887;28;20016;-40
2024/01/08 09:46:04;;;;;;;4.00;0.95;;;;;;;;;;5092732;28;20028;-40
2024/01/08 09:48:34;;;;;;;3.38;0.77;;;;;;;;;;5092691;28;20020;-40
2024/01/08 09:51:01;;;;;;;4.70;0.90;;;;;;;;;;5092603;28;20481;-40
2024/01/08 09:53:29;;;;;;;2.90;0.93;;;;;;;;;;5092692;28;20118;-40
2024/01/08 09:55:56;;;;;;;1.90;1.02;;;;;;;;;;5092395;28;20031;-40
2024/01/08 09:58:23;;;;;;;3.72;1.00;;;;;;;;;;5091733;28;20032;-40
2024/01/08 10:00:50;;;;;;;3.30;0.75;;;;;;;;;;5092398;28;20133;-40
2024/01/08 10:03:17;;;;;;;6.05;1.00;;;;;;;;;;5092497;28;20020;-40
2024/01/08 10:05:44;;;;;;;3.78;0.93;;;;;;;;;;5092383;28;20024;-41
2024/01/08 10:08:11;;;;;;;3.33;0.98;;;;;;;;;;5092342;28;20074;-40
2024/01/08 10:10:39;;;;;;;1.98;0.65;;;;;;;;;;5092286;28;20049;-40
2024/01/08 10:13:06;;;;;;;2.03;0.70;;;;;;;;;;5092353;28;20384;-40
2024/01/08 10:15:33;;;;;;;5.50;0.90;;;;;;;;;;5092280;28;20030;-41
2024/01/08 10:18:02;;;;;;;1.17;0.52;;;;;;;;;;5092962;28;20447;-40
2024/01/08 10:20:29;;;;;;;2.53;0.70;;;;;;;;;;5092080;28;20066;-41
2024/01/08 10:23:05;;;;;;;2.67;0.60;;;;;;;;;;5092109;28;20073;-41
2024/01/08 10:25:32;;;;;;;2.92;0.88;;;;;;;;;;5091821;28;20059;-40
2024/01/08 10:27:59;;;;;;;3.17;0.80;;;;;;;;;;5092143;28;20024;-40
2024/01/08 10:30:26;;;;;;;2.35;0.80;;;;;;;;;;5092122;28;20472;-40
2024/01/08 10:32:58;;;;;;;3.53;0.80;;;;;;;;;;5091935;28;20039;-40
2024/01/08 10:35:26;;;;;;;2.60;0.70;;;;;;;;;;5091873;28;20511;-40
2024/01/08 10:37:58;;;;;;;3.13;0.98;;;;;;;;;;5092000;28;20095;-41
2024/01/08 10:40:27;;;;;;;2.30;0.60;;;;;;;;;;5091916;28;20382;-42
2024/01/08 10:42:54;;;;;;;6.32;0.95;;;;;;;;;;5091946;28;20513;-41
2024/01/08 10:45:21;;;;;;;11.18;0.80;;;;;;;;;;5091760;28;20103;-40
2024/01/08 10:48:11;;;;;;;2.65;0.60;;;;;;;;;;5091853;28;20030;-41
2024/01/08 10:50:46;;;;;;;3.78;0.95;;;;;;;;;;5086445;28;20060;-41
2024/01/08 10:53:23;;;;;;;6.80;0.85;;;;;;;;;;5091874;28;20016;-40
2024/01/08 10:55:51;;;;;;;4.32;0.50;;;;;;;;;;5091591;28;20032;-40
2024/01/08 10:58:24;;;;;;;3.50;0.70;;;;;;;;;;5091857;28;20024;-40
2024/01/08 11:00:55;;;;;;;5.65;0.68;;;;;;;;;;5083979;28;20071;-40
2024/01/08 11:03:22;;;;;;;5.05;1.02;;;;;;;;;;5071509;28;20763;-40
2024/01/08 11:05:51;;;;;;;6.88;0.80;;;;;;;;;;5071468;28;20016;-41
2024/01/08 11:08:21;;;;;;;6.20;0.95;;;;;;;;;;5071436;28;20400;-40
2024/01/08 11:10:48;;;;;;;6.93;0.77;;;;;;;;;;5071448;28;20095;-40
2024/01/08 11:13:18;;;;;;;4.05;0.70;;;;;;;;;;5071328;28;20016;-40
2024/01/08 11:15:45;;;;;;;2.25;0.55;;;;;;;;;;5071413;28;20066;-41
2024/01/08 11:18:28;;;;;;;4.43;0.60;;;;;;;;;;5071142;28;20035;-40
2024/01/08 11:20:56;;;;;;;4.38;0.55;;;;;;;;;;5071300;28;20035;-40
2024/01/08 11:23:33;;;;;;;2.92;0.35;;;;;;;;;;5071239;28;20075;-40
2024/01/08 11:26:02;;;;;;;2.95;0.50;;;;;;;;;;5071026;28;20097;-42
2024/01/08 11:28:34;;;;;;;7.93;0.60;;;;;;;;;;5073145;28;20127;-40
2024/01/08 11:31:20;;;;;;;5.53;0.75;;;;;;;;;;5075143;28;20040;-40
2024/01/08 11:33:53;;;;;;;5.75;0.63;;;;;;;;;;5075364;28;20040;-40
2024/01/08 11:36:23;;;;;;;6.55;0.50;;;;;;;;;;5075132;28;20025;-41
2024/01/08 11:39:03;;;;;;;4.57;0.50;;;;;;;;;;5074951;28;20054;-41
2024/01/08 11:41:30;;;;;;;5.63;0.80;;;;;;;;;;5074935;28;20056;-40
2024/01/08 11:43:57;;;;;;;2.28;0.65;;;;;;;;;;5075111;28;20024;-40
2024/01/08 11:46:24;;;;;;;6.28;0.80;;;;;;;;;;5074922;28;20501;-40
2024/01/08 11:48:51;;;;;;;2.80;0.60;;;;;;;;;;5074776;28;20131;-39
2024/01/08 11:51:20;;;;;;;3.20;0.77;;;;;;;;;;5075063;28;20024;-40
2024/01/08 11:53:48;;;;;;;2.35;0.55;;;;;;;;;;5074677;28;20025;-40
2024/01/08 11:56:17;;;;;;;1.98;0.50;;;;;;;;;;5074688;28;20028;-46
2024/01/08 11:58:47;;;;;;;4.68;0.43;;;;;;;;;;5074607;28;20047;-41
2024/01/08 12:01:21;;;;;;;3.67;0.52;;;;;;;;;;5084038;28;20047;-41
2024/01/08 12:03:48;;;;;;;2.08;0.40;;;;;;;;;;5080988;28;20032;-39
2024/01/08 12:06:15;;;;;;;2.28;0.35;;;;;;;;;;5093818;28;20052;-40
2024/01/08 12:08:41;;;;;;;2.25;0.20;;;;;;;;;;5091266;28;20039;-39
2024/01/08 12:11:09;;;;;;;2.70;0.65;;;;;;;;;;5091375;28;20122;-40
2024/01/08 12:13:36;;;;;;;4.60;0.40;;;;;;;;;;5090720;28;20419;-43
2024/01/08 12:16:05;;;;;;;2.50;0.40;;;;;;;;;;5093720;28;20378;-41
2024/01/08 12:18:32;;;;;;;10.15;1.20;;;;;;;;;;5093824;28;20028;-40
2024/01/08 12:20:58;;;;;;;2.50;0.40;;;;;;;;;;5093753;28;20032;-42
2024/01/08 12:23:26;;;;;;;5.18;0.68;;;;;;;;;;5093663;28;20028;-40
2024/01/08 12:25:53;;;;;;;3.95;0.50;;;;;;;;;;5090563;28;20048;-40
2024/01/08 12:28:20;;;;;;;3.97;0.50;;;;;;;;;;5093594;28;20020;-40
2024/01/08 12:30:47;;;;;;;3.80;0.40;;;;;;;;;;5093628;28;20023;-40
2024/01/08 12:33:14;;;;;;;1.23;0.40;;;;;;;;;;5093522;28;20019;-40
2024/01/08 12:35:42;;;;;;;2.10;0.63;;;;;;;;;;5093337;28;20099;-42
2024/01/08 12:38:11;;;;;;;5.18;0.63;;;;;;;;;;5086155;28;20031;-40
2024/01/08 12:40:38;;;;;;;2.85;0.60;;;;;;;;;;5090058;28;20038;-40
2024/01/08 12:43:05;;;;;;;1.55;0.50;;;;;;;;;;5091206;28;20035;-40
2024/01/08 12:45:33;;;;;;;3.25;0.50;;;;;;;;;;5092607;28;20912;-41
2024/01/08 12:48:00;;;;;;;0.63;0.32;;;;;;;;;;5092706;28;20447;-39
2024/01/08 12:50:27;;;;;;;1.50;0.40;;;;;;;;;;5089293;28;20025;-41
2024/01/08 12:52:54;;;;;;;3.95;0.35;;;;;;;;;;5086067;28;20032;-40
2024/01/08 12:55:21;;;;;;;2.40;0.30;;;;;;;;;;5081190;28;20028;-41
2024/01/08 12:57:48;;;;;;;1.70;0.38;;;;;;;;;;5073523;28;20032;-40
2024/01/08 13:00:15;;;;;;;5.43;0.90;;;;;;;;;;5072404;28;20056;-39
2024/01/08 13:02:42;;;;;;;3.03;0.50;;;;;;;;;;5081775;28;20064;-42
2024/01/08 13:05:09;;;;;;;2.40;0.40;;;;;;;;;;5082496;28;20016;-41
2024/01/08 13:07:36;;;;;;;3.60;0.40;;;;;;;;;;5081311;28;20051;-41
2024/01/08 13:10:05;;;;;;;5.05;0.45;;;;;;;;;;5075687;28;20044;-40
2024/01/08 13:12:32;;;;;;;2.70;0.40;;;;;;;;;;5072874;28;20063;-40
2024/01/08 13:14:59;;;;;;;2.17;0.40;;;;;;;;;;5076324;28;20033;-41
2024/01/08 13:17:27;;;;;;;2.38;0.50;;;;;;;;;;5079758;28;20489;-42
2024/01/08 13:19:53;;;;;;;2.55;0.50;;;;;;;;;;5082203;28;20028;-42
2024/01/08 13:22:20;;;;;;;4.78;0.50;;;;;;;;;;5082888;28;20064;-41
2024/01/08 13:24:48;;;;;;;2.17;0.55;;;;;;;;;;5082486;28;20088;-44
2024/01/08 13:27:15;;;;;;;2.65;0.40;;;;;;;;;;5075872;28;20374;-41
2024/01/08 13:29:42;;;;;;;2.97;0.60;;;;;;;;;;5072858;28;20489;-41
2024/01/08 13:32:10;;;;;;;3.78;0.40;;;;;;;;;;5072548;28;20055;-42
2024/01/08 13:34:39;;;;;;;2.10;0.65;;;;;;;;;;5072842;28;20028;-41
2024/01/08 13:37:06;;;;;;;2.75;0.50;;;;;;;;;;5077607;28;20075;-41
2024/01/08 13:39:32;;;;;;;3.20;0.88;;;;;;;;;;5091970;28;20031;-38
2024/01/08 13:41:59;;;;;;;2.22;1.88;;;;;;;;;;5092168;28;20467;-43
2024/01/08 13:44:26;;;;;;;1.30;0.90;;;;;;;;;;5092389;28;20021;-40
2024/01/08 13:46:53;;;;;;;2.13;0.65;;;;;;;;;;5092041;28;20120;-44
2024/01/08 13:49:20;;;;;;;1.40;0.50;;;;;;;;;;5072373;28;20024;-41
2024/01/08 13:51:47;;;;;;;5.15;0.63;;;;;;;;;;5088019;28;20527;-41
2024/01/08 13:54:14;;;;;;;2.70;0.50;;;;;;;;;;5092127;28;20077;-41
2024/01/08 13:56:41;;;;;;;2.20;0.30;;;;;;;;;;5089915;28;20032;-41
2024/01/08 13:59:09;;;;;;;2.22;0.50;;;;;;;;;;5092023;28;20020;-42
2024/01/08 14:01:36;;;;;;;2.65;0.50;;;;;;;;;;5091938;28;20047;-42
2024/01/08 14:04:03;;;;;;;4.50;0.68;;;;;;;;;;5091856;28;20032;-42
2024/01/08 14:06:30;;;;;;;3.53;0.57;;;;;;;;;;5092152;28;20039;-45
2024/01/08 14:08:57;;;;;;;1.65;0.50;;;;;;;;;;5091021;28;20023;-42
2024/01/08 14:11:24;;;;;;;5.07;0.40;;;;;;;;;;5092105;28;20457;-43
2024/01/08 14:13:51;;;;;;;4.68;0.68;;;;;;;;;;5086143;28;20055;-42
2024/01/08 14:16:18;;;;;;;2.55;0.40;;;;;;;;;;5083970;28;20519;-42
2024/01/08 14:18:45;;;;;;;2.97;0.60;;;;;;;;;;5091819;28;20114;-42
2024/01/08 14:21:12;;;;;;;0.82;0.40;;;;;;;;;;5090613;28;20445;-42
2024/01/08 14:23:39;;;;;;;2.72;0.43;;;;;;;;;;5091709;28;20030;-41
2024/01/08 14:26:06;;;;;;;1.70;0.30;;;;;;;;;;5091681;28;20047;-41
2024/01/08 14:28:33;;;;;;;1.55;0.50;;;;;;;;;;5091860;28;20028;-41
2024/01/08 14:31:00;;;;;;;7.95;0.90;;;;;;;;;;5091823;28;20422;-41
2024/01/08 14:33:27;;;;;;;4.68;0.60;;;;;;;;;;5091919;28;20028;-41
2024/01/08 14:35:54;;;;;;;6.38;1.13;;;;;;;;;;5091158;28;20032;-41
2024/01/08 14:38:21;;;;;;;1.23;0.40;;;;;;;;;;5091777;28;20038;-43
2024/01/08 14:40:48;;;;;;;2.75;0.77;;;;;;;;;;5090975;28;20020;-42
2024/01/08 14:43:15;;;;;;;2.33;0.73;;;;;;;;;;5091885;28;20383;-41
2024/01/08 14:45:42;;;;;;;3.10;0.45;;;;;;;;;;5091149;28;20069;-41